createdAt,value
2022-09-04T00:04:43.464Z,0.90
2022-09-04T00:10:09.671Z,7.50
2022-09-04T00:15:23.045Z,1.02
2022-09-04T00:20:58.291Z,3.25
2022-09-04T00:26:39.360Z,1.98
2022-09-04T00:31:52.079Z,3.35
2022-09-04T00:36:58.419Z,1.10
2022-09-04T00:42:18.920Z,2.15
2022-09-04T00:47:48.729Z,0.90
2022-09-04T00:53:15.101Z,4.25
2022-09-04T00:58:24.546Z,0.63
2022-09-04T01:03:41.498Z,1.00
2022-09-04T01:09:17.012Z,1.75
2022-09-04T01:15:13.338Z,2.20
2022-09-04T01:20:54.857Z,2.53
2022-09-04T01:26:49.229Z,1.13
2022-09-04T01:31:54.829Z,3.15
2022-09-04T01:54:52.934Z,0.98
2022-09-04T02:00:17.669Z,1.70
2022-09-04T02:05:31.607Z,1.13
2022-09-04T02:11:15.772Z,2.17
2022-09-04T02:16:59.535Z,2.83
2022-09-04T02:22:15.010Z,1.05
2022-09-04T02:27:24.181Z,1.17
2022-09-04T02:32:38.722Z,1.38
2022-09-04T02:37:58.164Z,0.98
2022-09-04T02:43:24.818Z,2.70
2022-09-04T02:48:48.377Z,0.80
2022-09-04T02:54:16.605Z,1.38
2022-09-04T02:59:53.571Z,0.43
2022-09-04T03:05:22.706Z,1.47
2022-09-04T03:10:34.184Z,1.20
2022-09-04T03:15:50.083Z,3.00
2022-09-04T03:20:55.218Z,1.33
2022-09-04T03:26:15.656Z,1.33
2022-09-04T03:31:48.890Z,1.80
2022-09-04T03:36:54.052Z,2.10
2022-09-04T03:42:26.553Z,1.23
2022-09-04T03:48:04.289Z,2.55
2022-09-04T03:53:37.722Z,0.80
2022-09-04T03:58:54.442Z,1.83
2022-09-04T04:04:21.690Z,1.20
2022-09-04T04:09:48.216Z,2.42
2022-09-04T04:15:44.611Z,1.90
2022-09-04T04:21:36.779Z,1.95
2022-09-04T04:26:41.340Z,1.88
2022-09-04T04:32:31.149Z,3.88
2022-09-04T04:37:43.611Z,3.45
2022-09-04T04:42:54.696Z,3.28
2022-09-04T04:48:24.214Z,4.10
2022-09-04T04:53:49.138Z,2.92
2022-09-04T04:59:27.195Z,3.03
2022-09-04T05:05:04.534Z,3.20
2022-09-04T05:10:36.550Z,2.38
2022-09-04T05:16:08.449Z,4.75
2022-09-04T05:21:23.499Z,3.05
2022-09-04T05:26:39.998Z,2.35
2022-09-04T05:31:53.694Z,2.47
2022-09-04T05:37:17.232Z,1.42
2022-09-04T05:42:57.637Z,1.30
2022-09-04T05:48:26.291Z,2.92
2022-09-04T05:53:51.651Z,4.22
2022-09-04T05:59:16.972Z,2.22
2022-09-04T06:04:19.051Z,3.58
2022-09-04T06:09:53.801Z,8.13
2022-09-04T06:15:11.230Z,5.60
2022-09-04T06:20:22.448Z,3.00
2022-09-04T06:25:41.091Z,7.47
2022-09-04T06:31:06.226Z,4.82
2022-09-04T06:36:47.774Z,7.22
2022-09-04T06:42:20.226Z,4.53
2022-09-04T06:48:11.999Z,6.40
2022-09-04T07:19:40.542Z,16.80
2022-09-04T07:25:30.824Z,17.15
2022-09-04T07:37:02.122Z,12.98
2022-09-04T08:01:53.786Z,9.68
2022-09-04T08:07:40.447Z,11.23
2022-09-04T08:13:27.625Z,14.07
2022-09-04T08:19:11.630Z,12.45
2022-09-04T08:25:03.911Z,13.93
2022-09-04T08:30:18.890Z,15.50
2022-09-04T08:42:08.390Z,23.75
2022-09-04T08:47:17.777Z,28.40
2022-09-04T08:52:37.592Z,20.33
2022-09-04T08:58:01.153Z,23.42
2022-09-04T09:03:25.128Z,27.35
2022-09-04T09:08:58.790Z,24.50
2022-09-04T09:14:41.859Z,22.42
2022-09-04T09:19:46.464Z,24.38
2022-09-04T09:30:54.444Z,14.70
2022-09-04T09:43:09.070Z,11.15
2022-09-04T10:13:59.569Z,8.57
2022-09-04T10:19:29.239Z,8.45
2022-09-04T10:25:07.696Z,9.32
2022-09-04T10:30:29.774Z,6.55
2022-09-04T10:35:34.724Z,8.07
2022-09-04T10:41:19.179Z,8.60
2022-09-04T10:46:43.015Z,7.47
2022-09-04T10:52:17.254Z,8.05
2022-09-04T10:57:44.122Z,8.10
2022-09-04T11:03:22.823Z,6.57
2022-09-04T11:08:43.715Z,6.20
2022-09-04T11:14:28.947Z,5.53
2022-09-04T11:20:18.420Z,5.22
2022-09-04T11:25:44.813Z,4.03
2022-09-04T11:30:56.299Z,2.40
2022-09-04T11:36:30.680Z,2.85
2022-09-04T11:42:19.978Z,3.63
2022-09-04T11:47:49.461Z,2.50
2022-09-04T11:53:11.297Z,1.33
2022-09-04T11:58:36.515Z,0.52
2022-09-04T12:04:03.225Z,3.00
2022-09-04T12:09:38.726Z,1.10
2022-09-04T12:14:46.866Z,1.67
2022-09-04T12:20:23.964Z,3.08
2022-09-04T12:25:50.159Z,1.20
2022-09-04T12:31:15.998Z,1.40
2022-09-04T12:36:27.180Z,2.00
2022-09-04T12:41:37.844Z,3.03
2022-09-04T12:47:28.428Z,1.05
2022-09-04T12:52:51.894Z,0.75
2022-09-04T12:58:03.833Z,0.95
2022-09-04T13:03:29.465Z,1.25
2022-09-04T13:08:55.289Z,0.93
2022-09-04T13:14:00.054Z,0.47
2022-09-04T13:19:36.115Z,0.40
2022-09-04T13:25:14.572Z,0.80
2022-09-04T13:30:25.451Z,3.47
2022-09-04T13:35:42.545Z,1.23
2022-09-04T13:41:02.367Z,0.95
2022-09-04T13:46:11.425Z,0.60
2022-09-04T13:51:24.145Z,0.68
2022-09-04T13:56:42.030Z,1.85
2022-09-04T14:01:49.276Z,1.85
2022-09-04T14:06:51.184Z,1.27
2022-09-04T14:12:13.586Z,0.55
2022-09-04T14:17:27.049Z,0.50
2022-09-04T14:23:04.583Z,2.15
2022-09-04T14:28:32.008Z,0.32
2022-09-04T14:33:41.775Z,1.80
2022-09-04T14:38:49.747Z,1.20
2022-09-04T14:44:25.505Z,0.45
2022-09-04T14:54:40.117Z,0.32
2022-09-04T14:59:49.457Z,0.90
2022-09-04T15:05:16.743Z,0.28
2022-09-04T15:10:24.449Z,0.73
2022-09-04T15:15:39.127Z,0.30
2022-09-04T15:20:56.160Z,0.87
2022-09-04T15:26:07.254Z,0.73
2022-09-04T15:31:16.597Z,0.55
2022-09-04T15:36:23.892Z,0.13
2022-09-04T15:41:45.655Z,0.20
2022-09-04T15:46:56.561Z,2.55
2022-09-04T15:52:09.445Z,1.55
2022-09-04T15:57:39.339Z,1.90
2022-09-04T16:02:54.690Z,0.85
2022-09-04T16:08:10.206Z,0.45
2022-09-04T16:13:35.507Z,0.20
2022-09-04T16:18:46.709Z,2.97
2022-09-04T16:23:49.824Z,0.28
2022-09-04T16:28:58.599Z,0.50
2022-09-04T16:34:26.700Z,1.27
2022-09-04T16:39:32.802Z,0.43
2022-09-04T16:44:47.702Z,0.82
2022-09-04T16:50:17.983Z,0.20
2022-09-04T16:55:34.440Z,0.30
2022-09-04T17:00:59.951Z,0.68
2022-09-04T17:06:30.424Z,0.60
2022-09-04T17:17:30.550Z,0.20
2022-09-04T17:29:01.037Z,0.57
2022-09-04T17:29:17.147Z,2.00
2022-09-04T17:40:38.373Z,0.40
2022-09-04T17:40:56.304Z,1.65
2022-09-04T17:50:53.261Z,0.52
2022-09-04T17:56:13.969Z,0.70
2022-09-04T18:01:35.518Z,0.65
2022-09-04T18:06:43.110Z,0.50
2022-09-04T18:12:00.914Z,1.02
2022-09-04T18:17:45.455Z,1.88
2022-09-04T18:23:14.129Z,4.38
2022-09-04T18:28:25.597Z,1.42
2022-09-04T18:37:22.868Z,1.27
2022-09-04T18:39:12.690Z,2.15
2022-09-04T18:50:22.177Z,1.63
2022-09-04T18:50:52.395Z,0.88
2022-09-04T18:55:23.556Z,2.53
2022-09-04T19:00:30.643Z,1.20
2022-09-04T19:05:44.943Z,1.38
2022-09-04T19:10:51.638Z,1.98
2022-09-04T19:21:14.486Z,2.53
2022-09-04T19:26:43.165Z,3.00
2022-09-04T19:32:08.345Z,3.95
2022-09-04T19:39:13.277Z,0.52
2022-09-04T19:46:15.051Z,1.30
2022-09-04T19:54:12.286Z,2.75
2022-09-04T19:59:39.258Z,1.10
2022-09-04T20:04:48.475Z,1.70
2022-09-04T20:09:54.877Z,3.53
2022-09-04T20:14:59.561Z,0.85
2022-09-04T20:20:06.019Z,0.85
2022-09-04T20:30:24.556Z,3.47
2022-09-04T20:40:42.281Z,0.95
2022-09-04T20:48:09.027Z,0.85
2022-09-04T20:52:58.420Z,1.25
2022-09-04T21:03:05.134Z,3.08
2022-09-04T21:08:24.403Z,3.47
2022-09-04T21:13:38.229Z,3.17
2022-09-04T21:19:27.334Z,2.60
2022-09-04T21:24:30.562Z,2.10
2022-09-04T21:30:02.721Z,1.88
2022-09-04T21:35:34.998Z,1.17
2022-09-04T21:40:51.536Z,0.77
2022-09-04T21:46:19.537Z,2.65
2022-09-04T21:51:53.703Z,1.13
2022-09-04T22:02:24.959Z,0.88
2022-09-04T22:03:39.925Z,1.85
2022-09-04T22:13:26.814Z,2.20
2022-09-04T22:14:37.231Z,2.42
2022-09-04T22:20:06.055Z,1.75
2022-09-04T22:25:31.807Z,2.38
2022-09-04T22:30:59.108Z,2.83
2022-09-04T22:41:36.731Z,1.77
2022-09-04T22:46:58.788Z,0.77
2022-09-04T22:52:10.239Z,0.85
2022-09-04T22:57:46.532Z,1.15
2022-09-04T23:03:08.342Z,9.73
2022-09-04T23:14:00.696Z,0.95
2022-09-04T23:14:08.772Z,2.85
2022-09-04T23:23:18.724Z,2.95
2022-09-04T23:26:48.653Z,3.00
2022-09-04T23:31:07.250Z,1.60
2022-09-04T23:36:33.992Z,1.52
2022-09-04T23:41:53.287Z,3.58
2022-09-04T23:47:22.434Z,1.40
2022-09-04T23:53:02.360Z,1.27
2022-09-04T23:58:47.226Z,1.35
